createdAt,value
2023-01-23T00:02:16.924Z,22.20
2023-01-23T00:04:44.298Z,18.33
2023-01-23T00:07:11.624Z,15.30
2023-01-23T00:09:38.899Z,19.70
2023-01-23T00:12:06.507Z,19.60
2023-01-23T00:14:33.758Z,24.52
2023-01-23T00:17:01.054Z,20.73
2023-01-23T00:19:28.364Z,22.33
2023-01-23T00:21:55.625Z,19.10
2023-01-23T00:24:22.891Z,21.35
2023-01-23T00:26:50.149Z,27.55
2023-01-23T00:29:17.491Z,22.15
2023-01-23T00:31:45.214Z,19.48
2023-01-23T00:34:14.844Z,25.15
2023-01-23T00:36:42.766Z,20.73
2023-01-23T00:39:13.556Z,18.58
2023-01-23T00:41:44.166Z,19.13
2023-01-23T00:44:11.471Z,20.75
2023-01-23T00:46:38.890Z,22.98
2023-01-23T00:49:06.581Z,22.42
2023-01-23T00:51:34.141Z,27.38
2023-01-23T00:54:01.846Z,20.15
2023-01-23T00:56:29.380Z,23.23
2023-01-23T00:58:56.800Z,25.08
2023-01-23T01:01:24.202Z,19.52
2023-01-23T01:03:51.550Z,19.98
2023-01-23T01:06:18.807Z,24.38
2023-01-23T01:08:46.173Z,21.10
2023-01-23T01:11:13.465Z,20.30
2023-01-23T01:13:40.773Z,26.55
2023-01-23T01:16:09.259Z,21.70
2023-01-23T01:18:36.703Z,18.58
2023-01-23T01:21:07.829Z,26.52
2023-01-23T01:23:35.542Z,23.25
2023-01-23T01:26:03.008Z,23.83
2023-01-23T01:28:30.720Z,27.30
2023-01-23T01:30:58.695Z,22.25
2023-01-23T01:33:28.532Z,24.85
2023-01-23T01:35:56.640Z,26.00
2023-01-23T01:38:24.103Z,24.50
2023-01-23T01:40:51.395Z,22.98
2023-01-23T01:43:20.716Z,22.75
2023-01-23T01:45:57.076Z,21.50
2023-01-23T01:48:26.342Z,27.73
2023-01-23T01:50:54.091Z,23.98
2023-01-23T01:53:22.748Z,27.85
2023-01-23T01:55:51.298Z,22.15
2023-01-23T01:58:19.049Z,19.95
2023-01-23T02:00:46.409Z,28.42
2023-01-23T02:03:13.818Z,26.48
2023-01-23T02:05:43.705Z,23.60
2023-01-23T02:08:19.784Z,24.13
2023-01-23T02:10:48.456Z,20.80
2023-01-23T02:13:32.517Z,22.23
2023-01-23T02:16:01.220Z,31.27
2023-01-23T02:18:29.768Z,22.67
2023-01-23T02:20:58.557Z,26.60
2023-01-23T02:23:42.516Z,22.80
2023-01-23T02:26:16.813Z,21.02
2023-01-23T02:28:48.547Z,25.08
2023-01-23T02:31:20.489Z,28.65
2023-01-23T02:33:52.695Z,25.88
2023-01-23T02:36:22.308Z,26.48
2023-01-23T02:38:54.698Z,27.48
2023-01-23T02:41:28.882Z,23.25
2023-01-23T02:43:57.442Z,23.20
2023-01-23T02:46:25.149Z,23.88
2023-01-23T02:48:52.559Z,26.73
2023-01-23T02:51:21.849Z,20.90
2023-01-23T02:56:18.367Z,21.70
2023-01-23T02:59:04.372Z,20.10
2023-01-23T03:01:33.692Z,22.67
2023-01-23T03:06:37.539Z,26.23
2023-01-23T03:09:07.948Z,23.83
2023-01-23T03:11:35.435Z,24.73
2023-01-23T03:14:04.483Z,29.95
2023-01-23T03:16:32.583Z,24.08
2023-01-23T03:19:05.016Z,24.42
2023-01-23T03:21:36.371Z,22.45
2023-01-23T03:24:05.552Z,26.33
2023-01-23T03:26:32.968Z,26.33
2023-01-23T03:29:18.917Z,27.50
2023-01-23T03:31:46.251Z,34.58
2023-01-23T03:34:13.682Z,26.10
2023-01-23T03:36:41.293Z,26.30
2023-01-23T03:39:27.444Z,20.50
2023-01-23T03:41:55.344Z,23.52
2023-01-23T03:46:52.853Z,24.35
2023-01-23T03:49:20.303Z,26.25
2023-01-23T03:51:51.833Z,30.30
2023-01-23T03:54:19.151Z,26.00
2023-01-23T03:56:46.404Z,22.13
2023-01-23T03:59:30.756Z,22.33
2023-01-23T04:02:00.549Z,30.58
2023-01-23T04:04:27.901Z,26.17
2023-01-23T04:06:55.968Z,26.23
2023-01-23T04:09:27.909Z,29.52
2023-01-23T04:11:58.496Z,27.73
2023-01-23T04:16:54.163Z,21.70
2023-01-23T04:19:21.630Z,28.90
2023-01-23T04:21:49.169Z,29.98
2023-01-23T04:24:17.343Z,26.77
2023-01-23T04:26:44.971Z,26.15
2023-01-23T04:29:12.992Z,26.30
2023-01-23T04:31:40.536Z,30.27
2023-01-23T04:34:08.350Z,25.52
2023-01-23T04:36:36.116Z,26.00
2023-01-23T04:39:03.496Z,29.08
2023-01-23T04:41:33.033Z,26.20
2023-01-23T04:44:20.708Z,26.13
2023-01-23T04:47:06.857Z,27.55
2023-01-23T04:49:34.943Z,28.70
2023-01-23T04:52:02.492Z,31.73
2023-01-23T04:54:32.435Z,30.35
2023-01-23T04:57:00.498Z,28.63
2023-01-23T04:59:27.959Z,26.15
2023-01-23T05:01:55.230Z,28.77
2023-01-23T05:04:24.064Z,27.03
2023-01-23T05:06:51.678Z,23.05
2023-01-23T05:09:18.938Z,26.15
2023-01-23T05:11:51.827Z,29.55
2023-01-23T05:14:22.175Z,25.30
2023-01-23T05:16:50.979Z,26.40
2023-01-23T05:19:19.775Z,21.50
2023-01-23T05:21:47.385Z,25.38
2023-01-23T05:24:17.959Z,27.88
2023-01-23T05:26:46.202Z,26.83
2023-01-23T05:29:14.171Z,32.47
2023-01-23T05:31:50.209Z,31.70
2023-01-23T05:34:36.511Z,28.23
2023-01-23T05:39:35.318Z,26.95
2023-01-23T05:42:03.257Z,30.33
2023-01-23T05:44:30.540Z,29.88
2023-01-23T05:47:05.627Z,32.13
2023-01-23T05:49:34.039Z,26.10
2023-01-23T05:52:01.784Z,30.08
2023-01-23T05:54:29.629Z,28.65
2023-01-23T05:56:57.025Z,28.77
2023-01-23T05:59:42.689Z,29.10
2023-01-23T06:02:32.842Z,28.58
2023-01-23T06:05:18.686Z,34.63
2023-01-23T06:08:02.704Z,25.67
2023-01-23T06:10:30.542Z,31.38
2023-01-23T06:12:57.876Z,26.58
2023-01-23T06:15:25.164Z,31.42
2023-01-23T06:17:55.092Z,28.10
2023-01-23T06:20:23.399Z,32.25
2023-01-23T06:22:50.666Z,30.60
2023-01-23T06:25:20.663Z,31.80
2023-01-23T06:27:48.436Z,34.45
2023-01-23T06:30:15.823Z,27.23
2023-01-23T06:32:46.321Z,30.42
2023-01-23T06:35:17.494Z,32.03
2023-01-23T06:37:45.477Z,25.48
2023-01-23T06:40:17.310Z,33.38
2023-01-23T06:42:58.453Z,32.55
2023-01-23T06:45:25.735Z,28.70
2023-01-23T06:47:53.425Z,26.08
2023-01-23T06:50:21.176Z,28.15
2023-01-23T06:52:48.552Z,31.10
2023-01-23T06:55:15.843Z,33.90
2023-01-23T06:57:44.870Z,29.45
2023-01-23T07:00:12.571Z,29.23
2023-01-23T07:02:40.266Z,30.23
2023-01-23T07:05:07.796Z,32.33
2023-01-23T07:07:35.617Z,30.50
2023-01-23T07:10:02.995Z,34.88
2023-01-23T07:12:30.275Z,33.28
2023-01-23T07:14:57.600Z,29.60
2023-01-23T07:17:35.279Z,30.27
2023-01-23T07:20:02.579Z,29.33
2023-01-23T07:22:30.030Z,25.17
2023-01-23T07:24:57.270Z,30.33
2023-01-23T07:27:24.529Z,29.27
2023-01-23T07:29:51.802Z,30.08
2023-01-23T07:32:19.088Z,30.73
2023-01-23T07:34:46.383Z,31.67
2023-01-23T07:37:13.636Z,30.00
2023-01-23T07:39:40.839Z,33.47
2023-01-23T07:42:08.064Z,29.40
2023-01-23T07:44:35.296Z,26.67
2023-01-23T07:47:02.616Z,29.35
2023-01-23T07:49:29.898Z,38.28
2023-01-23T07:51:57.108Z,28.45
2023-01-23T07:54:24.383Z,27.00
2023-01-23T07:56:51.898Z,32.88
2023-01-23T07:59:19.198Z,33.05
2023-01-23T08:01:46.453Z,31.42
2023-01-23T08:04:13.854Z,29.52
2023-01-23T08:06:41.108Z,27.45
2023-01-23T08:09:08.394Z,31.17
2023-01-23T08:11:35.616Z,32.03
2023-01-23T08:14:02.896Z,32.38
2023-01-23T08:16:30.084Z,32.30
2023-01-23T08:18:57.324Z,30.95
2023-01-23T08:21:24.976Z,31.95
2023-01-23T08:23:52.211Z,29.95
2023-01-23T08:26:19.454Z,28.15
2023-01-23T08:28:46.714Z,28.40
2023-01-23T08:31:14.522Z,38.53
2023-01-23T08:33:41.868Z,35.35
2023-01-23T08:36:11.304Z,35.28
2023-01-23T08:38:39.087Z,34.38
2023-01-23T08:41:06.851Z,37.65
2023-01-23T08:43:34.193Z,31.08
2023-01-23T08:46:02.553Z,30.97
2023-01-23T08:48:29.946Z,34.40
2023-01-23T08:51:01.695Z,34.45
2023-01-23T08:53:29.138Z,31.35
2023-01-23T08:56:04.090Z,30.50
2023-01-23T08:58:31.570Z,31.60
2023-01-23T09:00:59.442Z,36.15
2023-01-23T09:03:27.083Z,32.30
2023-01-23T09:05:54.338Z,40.92
2023-01-23T09:08:21.599Z,36.90
2023-01-23T09:10:48.847Z,34.58
2023-01-23T09:13:16.099Z,38.17
2023-01-23T09:15:43.391Z,30.15
2023-01-23T09:18:10.590Z,30.98
2023-01-23T09:20:39.129Z,35.03
2023-01-23T09:23:06.391Z,33.15
2023-01-23T09:25:33.635Z,33.47
2023-01-23T09:28:01.023Z,32.67
2023-01-23T09:30:28.337Z,31.17
2023-01-23T09:32:55.616Z,35.03
2023-01-23T09:35:23.461Z,34.20
2023-01-23T09:38:00.002Z,34.80
2023-01-23T09:40:37.621Z,34.78
2023-01-23T09:43:17.535Z,34.47
2023-01-23T09:45:47.448Z,33.08
2023-01-23T09:48:23.918Z,36.55
2023-01-23T09:50:57.017Z,33.65
2023-01-23T09:53:26.096Z,28.38
2023-01-23T09:56:01.194Z,29.20
2023-01-23T09:58:35.637Z,30.55
2023-01-23T10:01:02.953Z,27.75
2023-01-23T10:03:31.419Z,36.45
2023-01-23T10:06:16.424Z,29.00
2023-01-23T10:08:46.619Z,38.13
2023-01-23T10:11:25.829Z,31.30
2023-01-23T10:13:53.061Z,32.13
2023-01-23T10:16:48.526Z,33.83
2023-01-23T10:19:35.145Z,32.03
2023-01-23T10:22:04.889Z,30.17
2023-01-23T10:24:39.882Z,35.63
2023-01-23T10:27:31.851Z,30.30
2023-01-23T10:30:05.360Z,29.08
2023-01-23T10:32:47.742Z,33.53
2023-01-23T10:35:19.678Z,37.60
2023-01-23T10:37:51.498Z,35.80
2023-01-23T10:40:40.119Z,32.40
2023-01-23T10:43:13.581Z,32.65
2023-01-23T10:45:41.515Z,30.20
2023-01-23T10:48:27.318Z,31.40
2023-01-23T10:50:55.438Z,30.13
2023-01-23T10:53:22.959Z,32.28
2023-01-23T10:55:51.075Z,31.63
2023-01-23T10:58:24.213Z,35.03
2023-01-23T11:00:51.571Z,28.38
2023-01-23T11:03:21.791Z,31.63
2023-01-23T11:05:56.698Z,29.67
2023-01-23T11:08:29.091Z,26.83
2023-01-23T11:11:16.315Z,25.63
2023-01-23T11:13:44.776Z,28.50
2023-01-23T11:16:22.150Z,29.63
2023-01-23T11:18:56.703Z,28.45
2023-01-23T11:21:24.837Z,27.63
2023-01-23T11:24:08.373Z,28.35
2023-01-23T11:26:36.632Z,25.58
2023-01-23T11:29:19.630Z,23.27
2023-01-23T11:31:47.288Z,23.88
2023-01-23T11:34:14.900Z,22.27
2023-01-23T11:36:48.692Z,20.85
2023-01-23T11:39:24.489Z,20.88
2023-01-23T11:41:52.343Z,20.35
2023-01-23T11:44:22.739Z,18.05
2023-01-23T11:47:05.865Z,17.15
2023-01-23T11:49:53.383Z,14.05
2023-01-23T11:52:38.821Z,15.25
2023-01-23T11:55:06.079Z,16.10
2023-01-23T11:57:56.906Z,12.40
2023-01-23T12:00:35.756Z,14.48
2023-01-23T12:03:18.422Z,11.68
2023-01-23T12:05:51.846Z,9.65
2023-01-23T12:08:19.119Z,9.90
2023-01-23T12:10:52.398Z,9.45
2023-01-23T12:13:19.625Z,10.65
2023-01-23T12:15:52.906Z,12.93
2023-01-23T12:18:23.261Z,11.20
2023-01-23T12:20:51.550Z,10.15
2023-01-23T12:23:21.786Z,8.93
2023-01-23T12:25:55.258Z,11.07
2023-01-23T12:28:36.951Z,10.48
2023-01-23T12:31:05.744Z,9.02
2023-01-23T12:33:36.120Z,9.15
2023-01-23T12:36:29.474Z,10.50
2023-01-23T12:38:59.528Z,11.50
2023-01-23T12:41:34.489Z,11.27
2023-01-23T12:44:16.735Z,12.75
2023-01-23T12:46:50.907Z,10.88
2023-01-23T12:49:44.401Z,9.70
2023-01-23T12:52:18.493Z,9.57
2023-01-23T12:54:56.644Z,8.98
2023-01-23T12:57:52.548Z,12.00
2023-01-23T13:00:37.544Z,11.60
2023-01-23T13:03:22.799Z,9.38
2023-01-23T13:05:53.612Z,11.85
2023-01-23T13:08:38.360Z,13.15
2023-01-23T13:11:29.701Z,13.73
2023-01-23T13:13:57.273Z,12.07
2023-01-23T13:16:27.947Z,14.05
2023-01-23T13:19:15.686Z,12.05
2023-01-23T13:22:04.525Z,10.50
2023-01-23T13:24:57.127Z,10.23
2023-01-23T13:27:39.957Z,12.30
2023-01-23T13:30:36.257Z,11.25
2023-01-23T13:33:06.497Z,9.48
2023-01-23T13:35:39.786Z,7.90
2023-01-23T13:38:22.185Z,10.48
2023-01-23T13:41:04.342Z,8.45
2023-01-23T13:43:50.188Z,10.57
2023-01-23T13:46:37.825Z,11.77
2023-01-23T14:21:42.560Z,9.43
2023-01-23T14:24:22.285Z,12.00
2023-01-23T14:26:50.624Z,9.95
2023-01-23T14:29:20.622Z,12.00
2023-01-23T14:31:48.086Z,11.20
2023-01-23T14:34:18.648Z,15.52
2023-01-23T14:36:47.992Z,10.73
2023-01-23T14:39:23.116Z,12.45
2023-01-23T14:41:51.113Z,10.20
2023-01-23T14:44:21.420Z,10.90
2023-01-23T14:46:51.914Z,11.43
2023-01-23T14:49:24.373Z,8.77
2023-01-23T14:51:59.627Z,7.55
2023-01-23T14:54:31.791Z,6.60
2023-01-23T14:57:01.878Z,6.88
2023-01-23T14:59:32.168Z,7.20
2023-01-23T15:02:03.296Z,6.07
2023-01-23T15:04:32.551Z,6.20
2023-01-23T15:07:00.677Z,7.10
2023-01-23T15:09:29.242Z,7.00
2023-01-23T15:11:57.068Z,6.90
2023-01-23T15:14:26.897Z,7.88
2023-01-23T15:17:01.111Z,8.80
2023-01-23T15:19:28.737Z,7.90
2023-01-23T15:22:18.131Z,5.97
2023-01-23T15:24:45.465Z,9.57
2023-01-23T15:27:49.070Z,10.43
2023-01-23T15:30:34.481Z,9.80
2023-01-23T15:33:10.268Z,13.85
2023-01-23T15:35:38.764Z,6.50
2023-01-23T15:38:08.664Z,7.83
2023-01-23T15:40:38.219Z,9.80
2023-01-23T15:43:25.856Z,9.75
2023-01-23T15:45:53.795Z,11.57
2023-01-23T15:48:21.082Z,10.68
2023-01-23T15:50:48.410Z,12.88
2023-01-23T15:53:16.264Z,15.40
2023-01-23T15:55:43.569Z,15.45
2023-01-23T15:58:17.108Z,14.20
2023-01-23T16:00:44.428Z,16.00
2023-01-23T16:03:14.691Z,15.18
2023-01-23T16:05:42.164Z,13.93
2023-01-23T16:08:18.707Z,16.00
2023-01-23T16:10:46.295Z,14.88
2023-01-23T16:13:14.335Z,15.07
2023-01-23T16:15:43.920Z,15.02
2023-01-23T16:18:11.175Z,16.35
2023-01-23T16:20:40.317Z,20.27
2023-01-23T16:23:15.094Z,14.50
2023-01-23T16:25:45.500Z,16.25
2023-01-23T16:28:14.433Z,15.77
2023-01-23T16:30:41.708Z,15.80
2023-01-23T16:33:09.394Z,13.18
2023-01-23T16:35:36.969Z,16.98
2023-01-23T16:38:04.422Z,14.13
2023-01-23T16:40:32.124Z,13.57
2023-01-23T16:43:03.224Z,15.85
2023-01-23T16:45:31.575Z,15.18
2023-01-23T16:47:59.244Z,14.27
2023-01-23T16:50:58.623Z,13.82
2023-01-23T16:53:27.183Z,12.27
2023-01-23T16:55:55.483Z,14.30
2023-01-23T16:58:24.636Z,15.48
2023-01-23T17:00:52.781Z,14.63
2023-01-23T17:03:24.466Z,35.67
2023-01-23T17:05:51.733Z,16.17
2023-01-23T17:08:22.925Z,18.10
2023-01-23T17:10:52.374Z,18.08
2023-01-23T17:15:47.965Z,16.83
2023-01-23T17:18:23.355Z,14.60
2023-01-23T17:20:50.818Z,16.73
2023-01-23T17:23:18.189Z,19.75
2023-01-23T17:25:59.934Z,15.30
2023-01-23T17:28:28.645Z,19.42
2023-01-23T17:31:00.412Z,17.13
2023-01-23T17:33:30.311Z,16.48
2023-01-23T17:35:57.701Z,18.27
2023-01-23T17:38:26.318Z,20.23
2023-01-23T17:40:54.158Z,18.42
2023-01-23T17:43:21.971Z,17.88
2023-01-23T17:45:50.795Z,15.10
2023-01-23T17:48:23.438Z,20.35
2023-01-23T17:50:50.748Z,15.13
2023-01-23T17:53:19.463Z,15.95
2023-01-23T17:55:51.350Z,17.38
2023-01-23T17:58:19.200Z,19.70
2023-01-23T18:00:48.846Z,19.33
2023-01-23T18:03:17.359Z,19.67
2023-01-23T18:05:44.935Z,19.30
2023-01-23T18:08:16.108Z,19.85
2023-01-23T18:10:46.963Z,20.92
2023-01-23T18:13:17.504Z,17.33
2023-01-23T18:15:50.775Z,17.20
2023-01-23T18:18:37.138Z,17.60
2023-01-23T18:21:05.795Z,21.15
2023-01-23T18:23:37.084Z,22.80
2023-01-23T18:26:07.621Z,20.20
2023-01-23T18:28:39.491Z,23.98
2023-01-23T18:31:14.386Z,16.23
2023-01-23T18:33:51.555Z,21.35
2023-01-23T18:36:30.827Z,19.90
2023-01-23T18:38:58.066Z,21.13
2023-01-23T18:41:26.736Z,20.80
2023-01-23T18:44:00.162Z,22.98
2023-01-23T18:46:27.997Z,20.75
2023-01-23T18:48:55.564Z,21.95
2023-01-23T18:51:41.569Z,21.85
2023-01-23T18:54:08.923Z,44.95
2023-01-23T18:56:48.551Z,25.50
2023-01-23T18:59:22.073Z,22.50
2023-01-23T19:01:54.220Z,26.20
2023-01-23T19:04:41.842Z,24.88
2023-01-23T19:07:16.133Z,24.35
2023-01-23T19:09:46.580Z,24.58
2023-01-23T19:12:24.074Z,22.10
2023-01-23T19:15:12.037Z,24.35
2023-01-23T19:17:50.465Z,24.92
2023-01-23T19:20:36.664Z,24.37
2023-01-23T19:23:18.959Z,21.90
2023-01-23T19:25:48.003Z,27.02
2023-01-23T19:28:15.904Z,27.27
2023-01-23T19:30:43.422Z,31.00
2023-01-23T19:33:15.724Z,28.90
2023-01-23T19:35:43.263Z,27.55
2023-01-23T19:38:10.789Z,30.25
2023-01-23T19:40:38.240Z,29.17
2023-01-23T19:43:14.041Z,29.33
2023-01-23T19:45:42.177Z,30.38
2023-01-23T19:48:09.470Z,28.83
2023-01-23T19:50:37.307Z,32.30
2023-01-23T19:53:04.823Z,30.90
2023-01-23T19:55:33.658Z,34.08
2023-01-23T19:58:01.291Z,42.20
2023-01-23T20:00:29.865Z,36.78
2023-01-23T20:02:57.438Z,34.63
2023-01-23T20:05:25.092Z,29.33
2023-01-23T20:07:53.935Z,29.48
2023-01-23T20:10:21.835Z,27.13
2023-01-23T20:12:55.191Z,31.63
2023-01-23T20:15:23.635Z,29.67
2023-01-23T20:17:51.931Z,34.35
2023-01-23T20:20:19.673Z,36.08
2023-01-23T20:22:47.043Z,32.03
2023-01-23T20:25:15.810Z,29.52
2023-01-23T20:27:43.460Z,24.02
2023-01-23T20:30:15.280Z,27.30
2023-01-23T20:32:42.679Z,32.92
2023-01-23T20:35:10.095Z,32.85
2023-01-23T20:37:37.348Z,30.10
2023-01-23T20:40:04.951Z,29.10
2023-01-23T20:42:32.185Z,30.83
2023-01-23T20:44:59.468Z,30.00
2023-01-23T20:47:26.797Z,32.20
2023-01-23T20:49:54.073Z,28.05
2023-01-23T20:52:40.042Z,31.10
2023-01-23T20:55:07.475Z,29.15
2023-01-23T20:57:53.338Z,31.33
2023-01-23T21:00:20.661Z,29.25
2023-01-23T21:02:48.000Z,29.20
2023-01-23T21:05:15.313Z,28.35
2023-01-23T21:07:42.551Z,30.20
2023-01-23T21:10:10.118Z,30.25
2023-01-23T21:12:37.446Z,29.48
2023-01-23T21:15:04.913Z,28.63
2023-01-23T21:17:32.196Z,31.73
2023-01-23T21:19:59.506Z,26.23
2023-01-23T21:22:26.709Z,28.27
2023-01-23T21:24:54.159Z,29.85
2023-01-23T21:27:23.479Z,27.67
2023-01-23T21:29:51.833Z,32.25
2023-01-23T21:32:21.083Z,28.67
2023-01-23T21:34:48.473Z,27.40
2023-01-23T21:37:15.703Z,28.20
2023-01-23T21:39:43.003Z,30.33
2023-01-23T21:42:10.306Z,27.15
2023-01-23T21:44:37.506Z,27.13
2023-01-23T21:47:04.754Z,29.27
2023-01-23T21:49:32.066Z,24.85
2023-01-23T21:51:59.535Z,28.20
2023-01-23T21:54:26.811Z,29.27
2023-01-23T21:56:54.090Z,27.70
2023-01-23T21:59:21.371Z,29.73
2023-01-23T22:01:48.744Z,29.02
2023-01-23T22:04:22.404Z,31.48
2023-01-23T22:06:54.096Z,30.70
2023-01-23T22:09:22.742Z,29.10
2023-01-23T22:11:50.120Z,29.25
2023-01-23T22:14:19.226Z,29.50
2023-01-23T22:16:49.788Z,30.13
2023-01-23T22:19:19.179Z,27.45
2023-01-23T22:21:46.898Z,28.58
2023-01-23T22:24:14.878Z,25.90
2023-01-23T22:26:42.611Z,33.83
2023-01-23T22:29:09.885Z,25.70
2023-01-23T22:31:37.314Z,30.80
2023-01-23T22:34:04.675Z,29.23
2023-01-23T22:36:31.902Z,32.90
2023-01-23T22:38:59.143Z,30.88
2023-01-23T22:41:26.797Z,25.88
2023-01-23T22:43:54.651Z,30.15
2023-01-23T22:46:22.592Z,31.08
2023-01-23T22:48:50.257Z,25.95
2023-01-23T22:51:25.460Z,27.17
2023-01-23T22:53:53.373Z,27.98
2023-01-23T22:56:20.780Z,30.33
2023-01-23T22:58:48.653Z,29.38
2023-01-23T23:01:16.040Z,32.80
2023-01-23T23:03:43.751Z,27.52
2023-01-23T23:06:12.980Z,28.60
2023-01-23T23:08:40.643Z,28.27
2023-01-23T23:11:18.705Z,27.83
2023-01-23T23:13:45.949Z,28.48
2023-01-23T23:16:17.795Z,28.25
2023-01-23T23:18:46.166Z,29.30
2023-01-23T23:21:14.703Z,27.85
2023-01-23T23:23:42.051Z,28.57
2023-01-23T23:26:10.225Z,28.75
2023-01-23T23:28:38.284Z,29.08
2023-01-23T23:31:06.197Z,32.88
2023-01-23T23:33:33.803Z,32.17
2023-01-23T23:36:01.032Z,27.83
2023-01-23T23:38:28.320Z,27.02
2023-01-23T23:40:59.949Z,28.30
2023-01-23T23:43:27.431Z,31.08
2023-01-23T23:45:55.550Z,29.80
2023-01-23T23:48:23.327Z,31.25
2023-01-23T23:50:50.776Z,27.13
2023-01-23T23:53:18.261Z,35.13
2023-01-23T23:55:46.019Z,30.65
2023-01-23T23:58:13.296Z,28.00
